createdAt,value
2017-09-05T00:00:02.744Z,73.8
2017-09-05T00:05:03.471Z,74.1
2017-09-05T00:10:15.298Z,74.2
2017-09-05T00:15:05.562Z,74.5
2017-09-05T00:20:10.940Z,74.6
2017-09-05T00:25:02.645Z,74.6
2017-09-05T00:30:05.905Z,74.6
2017-09-05T00:35:02.629Z,74.5
2017-09-05T00:40:02.955Z,74.4
2017-09-05T00:45:02.661Z,74.7
2017-09-05T00:50:03.421Z,74.5
2017-09-05T00:55:05.650Z,74.3
2017-09-05T01:00:10.940Z,74.6
2017-09-05T01:05:02.622Z,74.5
2017-09-05T01:10:02.781Z,74.8
2017-09-05T01:15:06.017Z,74.8
2017-09-05T01:20:07.864Z,74.8
2017-09-05T01:25:05.061Z,75
2017-09-05T01:30:02.774Z,75
2017-09-05T01:35:06.050Z,75
2017-09-05T01:40:08.316Z,75
2017-09-05T01:45:05.490Z,75
2017-09-05T01:50:08.248Z,75
2017-09-05T01:55:02.975Z,75
2017-09-05T02:00:05.227Z,75.4
2017-09-05T02:05:02.902Z,75.4
2017-09-05T02:10:08.123Z,75.4
2017-09-05T02:15:05.330Z,75
2017-09-05T02:20:15.798Z,75.2
2017-09-05T02:25:05.035Z,75.5
2017-09-05T02:30:05.260Z,75.6
2017-09-05T02:35:08.066Z,76.2
2017-09-05T02:40:03.268Z,76.2
2017-09-05T02:45:02.997Z,76.2
2017-09-05T02:50:05.237Z,78.2
2017-09-05T02:55:02.921Z,78.1
2017-09-05T03:00:15.284Z,77.9
2017-09-05T03:05:05.526Z,77.6
2017-09-05T03:10:02.672Z,77.6
2017-09-05T03:15:05.469Z,77
2017-09-05T03:20:26.032Z,76.6
2017-09-05T03:25:05.220Z,76.3
2017-09-05T03:30:03.285Z,76.3
2017-09-05T03:35:02.985Z,76.1
2017-09-05T03:40:13.248Z,75.7
2017-09-05T03:45:02.942Z,75.7
2017-09-05T03:50:02.644Z,75.8
2017-09-05T03:55:10.951Z,76.3
2017-09-05T04:00:05.196Z,76.4
2017-09-05T04:05:05.445Z,76.8
2017-09-05T04:10:05.116Z,77.1
2017-09-05T04:15:10.420Z,77.1
2017-09-05T04:20:03.182Z,77
2017-09-05T04:25:05.479Z,76.9
2017-09-05T04:30:10.809Z,76.8
2017-09-05T04:35:02.543Z,76.8
2017-09-05T04:40:02.732Z,76.8
2017-09-05T04:45:03.450Z,76.8
2017-09-05T04:50:03.146Z,76.7
2017-09-05T04:55:05.392Z,77.1
2017-09-05T05:00:10.685Z,76.9
2017-09-05T05:05:05.906Z,77.2
2017-09-05T05:10:03.070Z,77.2
2017-09-05T05:15:02.820Z,77.8
2017-09-05T05:20:05.154Z,77.9
2017-09-05T05:25:07.939Z,77.9
2017-09-05T05:30:05.181Z,78.2
2017-09-05T05:35:05.417Z,78
2017-09-05T05:40:10.169Z,77.8
2017-09-05T05:45:02.901Z,77.7
2017-09-05T05:50:05.138Z,76.6
2017-09-05T05:55:05.363Z,76.6
2017-09-05T06:00:18.244Z,76.7
2017-09-05T06:05:05.475Z,76.5
2017-09-05T06:10:02.601Z,76.4
2017-09-05T06:15:03.284Z,76.3
2017-09-05T06:20:08.127Z,75.4
2017-09-05T06:25:05.352Z,76
2017-09-05T06:30:05.690Z,75.8
2017-09-05T06:35:05.945Z,75.4
2017-09-05T06:40:03.123Z,75.4
2017-09-05T06:45:05.437Z,75.3
2017-09-05T06:50:08.245Z,75
2017-09-05T06:55:05.592Z,75
2017-09-05T07:00:05.828Z,74.5
2017-09-05T07:05:03.042Z,74.5
2017-09-05T07:10:10.804Z,74.1
2017-09-05T07:15:02.509Z,74.1
2017-09-05T07:20:05.837Z,73.6
2017-09-05T07:25:05.084Z,72.7
2017-09-05T07:30:05.317Z,73.6
2017-09-05T07:35:03.032Z,73.4
2017-09-05T07:40:05.727Z,73.2
2017-09-05T07:45:11.030Z,72.4
2017-09-05T07:50:07.817Z,72.6
2017-09-05T07:55:05.037Z,71.6
2017-09-05T08:00:02.742Z,71.6
2017-09-05T08:05:16.127Z,70.9
2017-09-05T08:10:05.864Z,70.3
2017-09-05T08:15:02.558Z,70.2
2017-09-05T08:20:05.848Z,66.1
2017-09-05T08:25:10.124Z,66.5
2017-09-05T08:30:05.371Z,67
2017-09-05T08:35:05.630Z,63.1
2017-09-05T08:40:02.727Z,62.9
2017-09-05T08:45:05.947Z,62.1
2017-09-05T08:50:02.614Z,62.1
2017-09-05T08:55:08.404Z,61.9
2017-09-05T09:00:08.178Z,61.8
2017-09-05T09:05:02.883Z,61.7
2017-09-05T09:10:03.039Z,61.6
2017-09-05T09:15:02.772Z,60.4
2017-09-05T09:20:05.095Z,59.4
2017-09-05T09:25:02.790Z,59.4
2017-09-05T09:30:02.496Z,59.1
2017-09-05T09:35:05.794Z,59
2017-09-05T09:40:13.085Z,58.5
2017-09-05T09:45:07.845Z,58.2
2017-09-05T09:50:02.564Z,58.2
2017-09-05T09:55:03.344Z,58.9
2017-09-05T10:00:03.058Z,58.6
2017-09-05T10:05:05.277Z,56.9
2017-09-05T10:10:08.517Z,57.2
2017-09-05T10:15:03.198Z,57.2
2017-09-05T10:20:05.531Z,55
2017-09-05T10:25:05.827Z,54
2017-09-05T10:30:02.578Z,54.1
2017-09-05T10:35:05.853Z,54.9
2017-09-05T10:40:05.506Z,54.4
2017-09-05T10:45:03.213Z,54.4
2017-09-05T10:50:10.503Z,53.4
2017-09-05T10:55:05.738Z,51.2
2017-09-05T11:00:11.050Z,50.6
2017-09-05T11:05:02.750Z,50.6
2017-09-05T11:10:07.975Z,51.4
2017-09-05T11:15:05.225Z,51.8
2017-09-05T11:20:05.530Z,51.1
2017-09-05T11:25:03.262Z,51
2017-09-05T11:30:02.977Z,51.1
2017-09-05T11:35:15.332Z,51.7
2017-09-05T11:40:05.995Z,50.7
2017-09-05T11:45:07.789Z,49.5
2017-09-05T11:50:07.570Z,49.2
2017-09-05T11:55:03.297Z,49.2
2017-09-05T12:00:05.125Z,48.8
2017-09-05T12:05:02.827Z,48.8
2017-09-05T12:10:03.002Z,48.3
2017-09-05T12:15:17.912Z,46.7
2017-09-05T12:20:15.357Z,47.5
2017-09-05T12:25:05.565Z,46.1
2017-09-05T12:30:08.309Z,46.3
2017-09-05T12:35:03.028Z,46.3
2017-09-05T12:40:08.266Z,41.5
2017-09-05T12:45:08.040Z,37.7
2017-09-05T12:50:02.763Z,37.6
2017-09-05T12:55:06.021Z,32.9
2017-09-05T13:00:02.738Z,32.9
2017-09-05T13:05:08.515Z,31.9
2017-09-05T13:10:05.213Z,30.1
2017-09-05T13:15:02.976Z,30.1
2017-09-05T13:20:10.371Z,34.6
2017-09-05T13:25:05.581Z,34.1
2017-09-05T13:30:03.298Z,34.2
2017-09-05T13:35:03.033Z,32.6
2017-09-05T13:40:03.171Z,28.6
2017-09-05T13:45:07.934Z,25.4
2017-09-05T13:50:05.168Z,24.5
2017-09-05T13:55:18.082Z,25.1
2017-09-05T14:00:02.813Z,25.1
2017-09-05T14:05:05.101Z,25
2017-09-05T14:10:05.807Z,23.5
2017-09-05T14:15:02.502Z,23.5
2017-09-05T14:20:03.280Z,23.7
2017-09-05T14:25:10.887Z,24.6
2017-09-05T14:30:05.119Z,23.9
2017-09-05T14:35:02.787Z,24
2017-09-05T14:40:10.504Z,26.7
2017-09-05T14:45:03.205Z,26.7
2017-09-05T14:50:03.472Z,28.8
2017-09-05T14:55:10.787Z,32.6
2017-09-05T15:00:07.579Z,33
2017-09-05T15:05:05.854Z,33.8
2017-09-05T15:10:02.998Z,33.8
2017-09-05T15:15:07.806Z,37.5
2017-09-05T15:20:02.541Z,37.9
2017-09-05T15:25:03.222Z,37.3
2017-09-05T15:30:02.946Z,35.7
2017-09-05T15:35:02.679Z,37.3
2017-09-05T15:40:05.362Z,37.6
2017-09-05T15:45:05.635Z,38.3
2017-09-05T15:50:10.958Z,39
2017-09-05T15:55:02.668Z,38.9
2017-09-05T16:00:10.969Z,40.1
2017-09-05T16:05:02.702Z,40
2017-09-05T16:10:10.484Z,42.4
2017-09-05T16:15:03.180Z,42.4
2017-09-05T16:20:05.507Z,42.8
2017-09-05T16:25:05.750Z,43.5
2017-09-05T16:30:03.465Z,43.5
2017-09-05T16:35:05.727Z,44.8
2017-09-05T16:40:10.472Z,45.1
2017-09-05T16:45:03.165Z,45.1
2017-09-05T16:50:10.478Z,46.8
2017-09-05T16:55:05.709Z,47.1
2017-09-05T17:00:05.961Z,48.2
2017-09-05T17:05:07.748Z,49.4
2017-09-05T17:10:10.534Z,49.9
2017-09-05T17:15:03.223Z,49.9
2017-09-05T17:20:08.093Z,51.6
2017-09-05T17:25:02.812Z,51.6
2017-09-05T17:30:02.518Z,52.1
2017-09-05T17:35:05.776Z,54.3
2017-09-05T17:40:08.088Z,54.8
2017-09-05T17:45:07.844Z,55
2017-09-05T17:50:10.233Z,55.7
2017-09-05T17:55:07.979Z,57.3
2017-09-05T18:00:05.404Z,57.7
2017-09-05T18:05:05.714Z,57.2
2017-09-05T18:10:05.431Z,57.6
2017-09-05T18:15:03.222Z,57.7
2017-09-05T18:20:03.070Z,59
2017-09-05T18:25:05.325Z,60.1
2017-09-05T18:30:05.553Z,60.9
2017-09-05T18:35:21.002Z,61.1
2017-09-05T18:40:20.879Z,61.5
2017-09-05T18:45:05.113Z,61.9
2017-09-05T18:50:02.833Z,61.9
2017-09-05T18:55:10.196Z,63.4
2017-09-05T19:00:02.925Z,63.4
2017-09-05T19:05:02.621Z,63.7
2017-09-05T19:10:02.770Z,64.7
2017-09-05T19:15:03.549Z,64.9
2017-09-05T19:20:03.309Z,64.9
2017-09-05T19:25:10.650Z,65.4
2017-09-05T19:30:05.920Z,66
2017-09-05T19:35:02.734Z,66.1
2017-09-05T19:40:02.908Z,66.3
2017-09-05T19:45:02.674Z,66.4
2017-09-05T19:50:10.961Z,66.6
2017-09-05T19:55:05.158Z,67.3
2017-09-05T20:00:02.842Z,67.3
2017-09-05T20:05:05.135Z,67.9
2017-09-05T20:10:05.784Z,67.9
2017-09-05T20:15:08.553Z,68.3
2017-09-05T20:20:03.328Z,68.3
2017-09-05T20:25:15.704Z,68.8
2017-09-05T20:30:02.699Z,68.8
2017-09-05T20:35:03.526Z,69.1
2017-09-05T20:40:07.757Z,69.7
2017-09-05T20:45:03.500Z,69.8
2017-09-05T20:50:15.846Z,70.5
2017-09-05T20:55:07.615Z,70.3
2017-09-05T21:00:03.418Z,70.3
2017-09-05T21:05:03.107Z,70.2
2017-09-05T21:10:08.356Z,70.4
2017-09-05T21:15:05.614Z,70.8
2017-09-05T21:20:13.545Z,70.6
2017-09-05T21:25:05.761Z,71.2
2017-09-05T21:30:03.489Z,71.2
2017-09-05T21:35:08.272Z,71.3
2017-09-05T21:40:13.526Z,71.2
2017-09-05T21:45:18.388Z,71.4
2017-09-05T21:50:05.585Z,71.2
2017-09-05T21:55:10.892Z,71.6
2017-09-05T22:00:17.760Z,71.6
2017-09-05T22:05:06.013Z,71.5
2017-09-05T22:10:08.249Z,71.6
2017-09-05T22:15:03.206Z,71.6
2017-09-05T22:20:05.522Z,71.4
2017-09-05T22:25:03.253Z,71.3
2017-09-05T22:30:05.531Z,71.6
2017-09-05T22:35:05.769Z,71.8
2017-09-05T22:40:07.983Z,71.6
2017-09-05T22:45:05.196Z,71.5
2017-09-05T22:50:05.428Z,71.2
2017-09-05T22:55:03.092Z,71.2
2017-09-05T23:00:02.824Z,71.1
2017-09-05T23:05:05.050Z,71.3
2017-09-05T23:10:03.201Z,71.3
2017-09-05T23:15:02.891Z,71.3
2017-09-05T23:20:02.926Z,71.3
2017-09-05T23:25:02.636Z,71.4
2017-09-05T23:30:03.372Z,71.6
2017-09-05T23:35:08.164Z,71.6
2017-09-05T23:40:05.800Z,72
2017-09-05T23:45:02.516Z,71.8
2017-09-05T23:50:05.760Z,72.5
2017-09-05T23:55:03.450Z,72.5
